Time;durP1;ratioP1;P1;durP2;ratioP2;P2;SDS_P1;SDS_P2;PMS_P1;PMS_P2;Temp;Humidity;BMP_temperature;BMP_pressure;BME280_temperature;BME280_humidity;BME280_pressure;Samples;Min_cycle;Max_cycle;Signal;HPM_P1;HPM_P2
2021/07/01 00:01:14;;;;;;;4.50;4.10;;;;;;;17.58;73.95;99793.89;92615;1219;67255;-57
2021/07/01 00:03:22;;;;;;;6.40;4.40;;;;;;;17.56;74.25;99790.59;92657;1220;69600;-56
2021/07/01 00:05:33;;;;;;;4.70;4.30;;;;;;;17.53;74.17;99791.91;92606;1219;88167;-56
2021/07/01 00:07:45;;;;;;;5.00;4.20;;;;;;;17.47;74.17;99789.34;92629;1209;73902;-64
2021/07/01 00:09:53;;;;;;;5.00;4.60;;;;;;;17.46;74.20;99787.67;92629;1219;81861;-64
2021/07/01 00:12:01;;;;;;;4.80;4.10;;;;;;;17.41;74.48;99784.87;92592;1219;66340;-65
2021/07/01 00:14:08;;;;;;;5.20;4.70;;;;;;;17.37;74.56;99780.97;92587;1219;68710;-57
2021/07/01 00:16:16;;;;;;;5.00;4.60;;;;;;;17.29;74.61;99789.56;92589;1219;87630;-57
2021/07/01 00:18:27;;;;;;;6.30;5.30;;;;;;;17.27;74.64;99795.30;92617;1220;74549;-64
2021/07/01 00:20:35;;;;;;;5.00;4.50;;;;;;;17.20;74.60;99797.34;92565;1219;81711;-65
2021/07/01 00:22:43;;;;;;;6.00;4.60;;;;;;;17.19;74.87;99789.41;92591;1226;67015;-57
2021/07/01 00:24:51;;;;;;;4.50;4.00;;;;;;;17.18;74.69;99779.55;92589;1219;69431;-56
2021/07/01 00:27:01;;;;;;;5.00;4.50;;;;;;;17.20;74.90;99780.13;92611;1212;85878;-55
2021/07/01 00:29:09;;;;;;;5.10;4.60;;;;;;;17.19;74.83;99783.95;92616;1219;74949;-66
2021/07/01 00:31:17;;;;;;;5.30;4.80;;;;;;;17.07;75.08;99784.84;92564;1219;80592;-64
2021/07/01 00:33:24;;;;;;;5.20;4.70;;;;;;;17.00;75.15;99775.97;92565;1220;68384;-57
2021/07/01 00:35:32;;;;;;;4.40;4.10;;;;;;;17.01;75.18;99780.37;92639;1219;69544;-58
2021/07/01 00:37:43;;;;;;;5.30;4.80;;;;;;;17.00;75.35;99784.16;92574;1219;86586;-63
2021/07/01 00:39:51;;;;;;;5.70;4.80;;;;;;;17.00;75.27;99778.70;92596;1219;75285;-66
2021/07/01 00:41:59;;;;;;;5.00;4.50;;;;;;;16.96;75.32;99783.02;92592;1224;81736;-65
2021/07/01 00:44:07;;;;;;;5.70;4.70;;;;;;;16.96;75.43;99784.91;92605;1224;66823;-57
2021/07/01 00:46:17;;;;;;;5.60;4.40;;;;;;;16.91;75.64;99790.28;92638;1219;70338;-57
2021/07/01 00:48:24;;;;;;;5.10;4.70;;;;;;;16.90;75.54;99783.16;92622;1219;86930;-65
2021/07/01 00:50:32;;;;;;;5.00;4.50;;;;;;;16.80;75.61;99778.36;92622;1219;75081;-65
2021/07/01 00:52:41;;;;;;;4.80;4.40;;;;;;;16.75;75.67;99775.54;92623;1218;83240;-65
2021/07/01 00:54:52;;;;;;;5.00;4.60;;;;;;;16.72;75.90;99776.02;92648;1219;66012;-66
2021/07/01 00:57:03;;;;;;;5.50;5.00;;;;;;;16.74;75.95;99786.67;92579;1219;67679;-64
2021/07/01 00:59:11;;;;;;;4.70;4.20;;;;;;;16.71;75.84;99771.63;92598;1219;88032;-67
2021/07/01 01:01:22;;;;;;;5.50;4.90;;;;;;;16.71;75.84;99774.36;92594;1219;74654;-65
2021/07/01 01:03:30;;;;;;;6.10;4.80;;;;;;;16.71;76.00;99763.45;92626;1219;81882;-66
2021/07/01 01:05:38;;;;;;;5.50;5.00;;;;;;;16.69;75.86;99754.69;92647;1219;66508;-65
2021/07/01 01:07:46;;;;;;;5.80;5.00;;;;;;;16.59;76.07;99759.94;92674;1219;69687;-56
2021/07/01 01:09:53;;;;;;;5.70;5.10;;;;;;;16.58;76.01;99765.64;92630;1219;85582;-58
2021/07/01 01:12:01;;;;;;;4.90;4.50;;;;;;;16.50;76.24;99761.38;92629;1219;75674;-58
2021/07/01 01:14:09;;;;;;;5.50;4.50;;;;;;;16.41;76.27;99766.39;92622;1219;81957;-68
2021/07/01 01:16:16;;;;;;;5.00;4.40;;;;;;;16.44;76.18;99765.08;92665;1225;67833;-65
2021/07/01 01:18:25;;;;;;;5.00;4.50;;;;;;;16.44;76.33;99757.73;92649;1219;69706;-58
2021/07/01 01:20:33;;;;;;;5.20;4.60;;;;;;;16.43;76.26;99764.24;92674;1219;86391;-57
2021/07/01 01:22:41;;;;;;;5.30;4.90;;;;;;;16.37;76.47;99761.67;92643;1219;74731;-58
2021/07/01 01:24:49;;;;;;;5.10;4.60;;;;;;;16.37;76.24;99764.41;92678;1217;81804;-58
2021/07/01 01:26:57;;;;;;;4.80;4.40;;;;;;;16.36;76.48;99763.57;92674;1219;67903;-58
2021/07/01 01:29:04;;;;;;;5.30;4.80;;;;;;;16.33;76.63;99760.48;92682;1218;67916;-59
2021/07/01 01:31:48;;;;;;;;;;;;;;;16.27;76.79;99756.83;92656;1219;85065;-58
2021/07/01 01:33:56;;;;;;;6.70;4.90;;;;;;;16.24;76.56;99761.93;92654;1219;74753;-66
2021/07/01 01:36:04;;;;;;;5.20;4.80;;;;;;;16.23;76.72;99766.58;92501;1219;81858;-68
2021/07/01 01:38:15;;;;;;;5.50;5.00;;;;;;;16.21;76.86;99768.69;92701;1219;68048;-58
2021/07/01 01:40:23;;;;;;;7.10;5.20;;;;;;;16.21;76.78;99756.95;92638;1220;69342;-59
2021/07/01 01:42:31;;;;;;;6.40;4.80;;;;;;;16.19;76.73;99767.28;92653;1219;87284;-63
2021/07/01 01:44:39;;;;;;;5.60;5.10;;;;;;;16.16;76.97;99767.77;92650;1219;76702;-65
2021/07/01 01:46:47;;;;;;;6.40;5.10;;;;;;;16.13;76.75;99757.34;92656;1219;81932;-67
2021/07/01 01:48:56;;;;;;;5.30;4.90;;;;;;;16.06;76.80;99765.66;92674;1219;69605;-56
2021/07/01 01:51:04;;;;;;;5.40;4.90;;;;;;;15.96;77.12;99770.08;92513;1219;69741;-61
2021/07/01 01:53:14;;;;;;;4.70;4.20;;;;;;;15.94;76.98;99767.57;92643;1219;86130;-58
2021/07/01 01:55:23;;;;;;;4.90;4.50;;;;;;;15.96;77.10;99767.35;92652;1218;76281;-57
2021/07/01 01:57:30;;;;;;;5.70;5.20;;;;;;;15.98;77.28;99759.75;92644;1219;81000;-58
2021/07/01 01:59:38;;;;;;;5.90;4.90;;;;;;;15.96;77.31;99764.63;92615;1218;67645;-57
2021/07/01 02:01:49;;;;;;;5.40;4.80;;;;;;;15.97;77.09;99760.81;92628;1219;69572;-56
2021/07/01 02:03:56;;;;;;;5.50;4.90;;;;;;;15.98;77.22;99763.31;92622;1219;86035;-67
2021/07/01 02:06:04;;;;;;;6.10;4.70;;;;;;;15.98;77.32;99760.59;92618;1219;73954;-64
2021/07/01 02:08:12;;;;;;;5.20;4.70;;;;;;;15.99;77.16;99767.67;92611;1219;81233;-65
2021/07/01 02:10:22;;;;;;;5.90;5.30;;;;;;;15.98;76.99;99752.42;92594;1219;65964;-64
2021/07/01 02:12:30;;;;;;;5.60;5.10;;;;;;;15.97;77.07;99761.64;92657;1219;69221;-57
2021/07/01 02:14:38;;;;;;;5.50;5.00;;;;;;;15.94;77.16;99760.23;92672;1219;86274;-58
2021/07/01 02:16:48;;;;;;;6.30;5.10;;;;;;;15.91;77.00;99755.26;92655;1219;74810;-57
2021/07/01 02:18:56;;;;;;;5.90;5.30;;;;;;;15.88;77.21;99757.63;92613;1209;81607;-58
2021/07/01 02:21:04;;;;;;;5.80;4.90;;;;;;;15.87;77.12;99762.27;92490;1219;66523;-58
2021/07/01 02:23:12;;;;;;;6.60;5.40;;;;;;;15.84;77.17;99761.91;92651;1219;69469;-65
2021/07/01 02:25:21;;;;;;;7.40;5.90;;;;;;;15.81;77.36;99765.94;92639;1224;87240;-65
2021/07/01 02:27:29;;;;;;;6.30;5.70;;;;;;;15.82;77.25;99770.30;92630;1219;75099;-58
2021/07/01 02:29:36;;;;;;;7.10;6.40;;;;;;;15.81;77.33;99768.67;92622;1220;82365;-58
2021/07/01 02:31:44;;;;;;;6.50;5.80;;;;;;;15.77;77.49;99777.53;92617;1219;68668;-57
2021/07/01 02:33:51;;;;;;;6.60;6.00;;;;;;;15.81;77.29;99781.45;92672;1219;70183;-65
2021/07/01 02:36:02;;;;;;;6.30;5.70;;;;;;;15.77;77.62;99772.08;92630;1219;86864;-65
2021/07/01 02:38:13;;;;;;;6.50;5.90;;;;;;;15.78;77.61;99777.31;92611;1218;74736;-66
2021/07/01 02:40:20;;;;;;;7.40;6.70;;;;;;;15.77;77.50;99778.36;92608;1219;81592;-71
2021/07/01 02:42:28;;;;;;;7.50;6.40;;;;;;;15.79;77.43;99781.67;92631;1214;67767;-58
2021/07/01 02:44:36;;;;;;;6.80;6.10;;;;;;;15.80;77.63;99780.62;92642;1220;68981;-59
2021/07/01 02:46:45;;;;;;;6.80;6.20;;;;;;;15.81;77.64;99778.73;92627;1219;87432;-57
2021/07/01 02:48:55;;;;;;;7.00;6.40;;;;;;;15.78;77.52;99796.38;92657;1219;74418;-66
2021/07/01 02:51:03;;;;;;;7.50;6.60;;;;;;;15.77;77.92;99781.09;92595;1219;82810;-64
2021/07/01 02:53:11;;;;;;;7.10;6.50;;;;;;;15.80;77.70;99790.67;92687;1209;66939;-58
2021/07/01 02:55:19;;;;;;;7.10;6.40;;;;;;;15.81;77.71;99784.17;92664;1219;70095;-61
2021/07/01 02:57:27;;;;;;;6.80;6.20;;;;;;;15.82;77.86;99783.13;92639;1220;86246;-58
2021/07/01 02:59:35;;;;;;;6.70;6.20;;;;;;;15.88;78.08;99780.25;92633;1219;74054;-57
2021/07/01 03:01:43;;;;;;;8.40;7.00;;;;;;;15.93;77.81;99787.73;92649;1218;81074;-59
2021/07/01 03:03:53;;;;;;;7.10;6.50;;;;;;;15.99;77.90;99785.95;92636;1218;67220;-65
2021/07/01 03:06:01;;;;;;;7.00;6.40;;;;;;;16.04;77.86;99791.50;92612;1219;69513;-66
2021/07/01 03:08:09;;;;;;;7.10;6.40;;;;;;;16.03;77.71;99792.55;92674;1219;86450;-57
2021/07/01 03:10:17;;;;;;;6.30;5.80;;;;;;;16.08;77.82;99807.12;92636;1219;76028;-56
2021/07/01 03:12:25;;;;;;;6.60;6.10;;;;;;;16.15;78.01;99804.27;92639;1218;81444;-61
2021/07/01 03:14:33;;;;;;;7.00;6.40;;;;;;;16.23;77.86;99796.56;92654;1219;66708;-57
2021/07/01 03:16:40;;;;;;;6.50;5.60;;;;;;;16.30;77.84;99794.52;92632;1218;69644;-57
2021/07/01 03:18:48;;;;;;;6.00;5.40;;;;;;;16.35;77.99;99794.61;92614;1219;87986;-66
2021/07/01 03:20:56;;;;;;;6.80;6.10;;;;;;;16.44;77.78;99793.17;92648;1219;73707;-66
2021/07/01 03:23:04;;;;;;;5.80;5.30;;;;;;;16.52;77.98;99786.50;92598;1219;81385;-56
2021/07/01 03:25:14;;;;;;;6.00;5.40;;;;;;;16.61;77.89;99801.45;92634;1219;65513;-57
2021/07/01 03:27:25;;;;;;;6.40;5.70;;;;;;;16.69;77.92;99795.60;92683;1220;69354;-64
2021/07/01 03:29:32;;;;;;;6.60;5.40;;;;;;;16.89;78.18;99804.14;92662;1219;87064;-58
2021/07/01 03:31:40;;;;;;;5.90;4.90;;;;;;;17.27;78.01;99800.75;92622;1220;74058;-57
2021/07/01 03:33:48;;;;;;;5.90;5.40;;;;;;;17.85;77.74;99797.61;92633;1219;80263;-56
2021/07/01 03:35:55;;;;;;;5.80;4.70;;;;;;;18.80;76.95;99799.92;92644;1209;65257;-56
2021/07/01 03:38:03;;;;;;;5.30;4.70;;;;;;;19.62;75.85;99794.13;92662;1224;68569;-57
2021/07/01 03:40:13;;;;;;;7.20;4.80;;;;;;;20.49;75.15;99795.19;92648;1219;86729;-57
2021/07/01 03:42:25;;;;;;;4.70;4.30;;;;;;;21.20;73.33;99792.67;92651;1221;74863;-58
2021/07/01 03:44:33;;;;;;;4.70;4.30;;;;;;;21.74;72.46;99796.50;92670;1219;79736;-57
2021/07/01 03:46:41;;;;;;;4.80;4.30;;;;;;;22.18;71.31;99795.88;92631;1220;66604;-56
2021/07/01 03:48:49;;;;;;;6.10;4.10;;;;;;;22.76;70.55;99800.63;92667;1210;69368;-64
2021/07/01 03:50:57;;;;;;;4.30;4.00;;;;;;;23.51;69.37;99787.47;92622;1219;86927;-65
2021/07/01 03:53:05;;;;;;;3.70;3.40;;;;;;;24.22;68.72;99789.53;92659;1219;74620;-63
2021/07/01 03:55:14;;;;;;;6.00;3.40;;;;;;;25.00;67.40;99789.90;92490;1219;81427;-63
2021/07/01 03:57:25;;;;;;;5.40;3.80;;;;;;;25.63;66.33;99777.30;92488;1219;65781;-63
2021/07/01 03:59:33;;;;;;;4.70;3.80;;;;;;;26.33;64.82;99780.71;92652;1219;69095;-57
2021/07/01 04:01:41;;;;;;;4.70;3.80;;;;;;;26.90;63.22;99781.17;92613;1218;85978;-57
2021/07/01 04:03:51;;;;;;;4.30;3.80;;;;;;;27.51;61.99;99778.62;92629;1219;74018;-65
2021/07/01 04:05:59;;;;;;;4.30;3.80;;;;;;;27.83;60.30;99774.72;92615;1219;82134;-64
2021/07/01 04:08:10;;;;;;;6.00;5.40;;;;;;;28.16;59.41;99778.02;92631;1219;67215;-64
2021/07/01 04:10:19;;;;;;;5.40;5.00;;;;;;;28.37;58.06;99772.72;92640;1220;68736;-63
2021/07/01 04:12:27;;;;;;;5.00;4.40;;;;;;;28.64;57.04;99772.49;92634;1219;85715;-58
2021/07/01 04:14:37;;;;;;;7.20;5.80;;;;;;;28.89;56.39;99774.50;92650;1219;75591;-56
2021/07/01 04:16:44;;;;;;;5.90;5.30;;;;;;;29.16;55.52;99778.93;92616;1214;81817;-56
2021/07/01 04:18:52;;;;;;;6.70;6.10;;;;;;;29.27;54.94;99780.27;92657;1219;66442;-58
2021/07/01 04:21:00;;;;;;;6.60;5.90;;;;;;;29.56;54.09;99776.79;92683;1219;69176;-58
2021/07/01 04:23:08;;;;;;;6.20;5.60;;;;;;;29.85;53.00;99776.11;92688;1219;86249;-58
2021/07/01 04:25:16;;;;;;;6.60;6.00;;;;;;;30.21;52.09;99777.31;92651;1219;75529;-57
2021/07/01 04:27:27;;;;;;;8.90;6.50;;;;;;;30.55;51.17;99786.66;92649;1219;81158;-64
2021/07/01 04:29:35;;;;;;;7.70;6.80;;;;;;;30.27;49.95;99786.30;92627;1219;68001;-56
2021/07/01 04:31:43;;;;;;;8.50;7.00;;;;;;;29.45;50.23;99781.06;92653;1219;68496;-57
2021/07/01 04:33:53;;;;;;;8.20;7.40;;;;;;;28.94;50.06;99782.69;92606;1218;86670;-64
2021/07/01 04:36:01;;;;;;;8.20;7.40;;;;;;;28.78;50.40;99780.70;92651;1219;74537;-64
2021/07/01 04:38:09;;;;;;;7.00;6.40;;;;;;;28.96;50.71;99782.34;92642;1221;81928;-57
2021/07/01 04:40:17;;;;;;;7.80;7.00;;;;;;;29.24;50.41;99778.96;92660;1209;66306;-58
2021/07/01 04:42:24;;;;;;;8.90;7.00;;;;;;;29.74;49.65;99784.80;92631;1220;68176;-58
2021/07/01 04:44:32;;;;;;;7.10;6.50;;;;;;;29.96;48.99;99783.79;92638;1219;86157;-57
2021/07/01 04:46:40;;;;;;;7.10;6.40;;;;;;;30.42;48.30;99777.39;92651;1220;74148;-58
2021/07/01 04:48:48;;;;;;;6.80;6.10;;;;;;;31.17;47.78;99773.65;92601;1219;82190;-64
2021/07/01 04:50:59;;;;;;;6.30;5.70;;;;;;;31.44;46.73;99772.25;92682;1209;65869;-65
2021/07/01 04:53:07;;;;;;;6.60;5.80;;;;;;;32.30;45.82;99771.35;92648;1218;70058;-59
2021/07/01 04:55:15;;;;;;;6.40;5.80;;;;;;;32.94;45.11;99772.25;92646;1219;86023;-58
2021/07/01 04:57:26;;;;;;;6.40;5.80;;;;;;;33.08;44.02;99771.89;92658;1209;74139;-61
2021/07/01 04:59:36;;;;;;;5.70;5.20;;;;;;;33.42;42.70;99776.11;92609;1225;82836;-66
2021/07/01 05:01:45;;;;;;;6.10;4.70;;;;;;;33.72;42.10;99772.61;92587;1219;65527;-65
2021/07/01 05:03:56;;;;;;;7.10;4.70;;;;;;;33.82;40.90;99777.69;92603;1219;69694;-65
2021/07/01 05:06:04;;;;;;;5.90;4.60;;;;;;;34.09;40.59;99784.43;92482;1219;85743;-65
2021/07/01 05:08:16;;;;;;;7.10;5.20;;;;;;;34.30;39.96;99785.00;92618;1209;73841;-58
2021/07/01 05:10:23;;;;;;;5.80;4.10;;;;;;;33.80;39.45;99793.23;92553;1219;81183;-60
2021/07/01 05:12:31;;;;;;;7.20;4.20;;;;;;;33.69;39.63;99797.72;92562;1219;65640;-57
2021/07/01 05:14:38;;;;;;;5.40;4.60;;;;;;;34.23;38.57;99801.63;92582;1219;69730;-58
2021/07/01 05:16:47;;;;;;;6.80;4.80;;;;;;;34.44;38.79;99795.77;92573;1219;86870;-59
2021/07/01 05:18:55;;;;;;;6.70;3.60;;;;;;;34.59;38.26;99794.95;92595;1219;74351;-64
2021/07/01 05:21:03;;;;;;;5.70;3.50;;;;;;;35.16;37.47;99797.09;92583;1221;81704;-64
2021/07/01 05:23:10;;;;;;;7.20;3.50;;;;;;;35.34;36.76;99792.69;92646;1219;65839;-66
2021/07/01 05:25:18;;;;;;;3.30;2.70;;;;;;;34.87;35.80;99790.02;92641;1219;68029;-65
2021/07/01 05:27:27;;;;;;;3.60;3.20;;;;;;;33.33;36.68;99795.03;92654;1219;86326;-59
2021/07/01 05:29:34;;;;;;;7.40;3.00;;;;;;;32.33;38.36;99795.83;92643;1219;74233;-59
2021/07/01 05:31:42;;;;;;;5.50;3.00;;;;;;;32.65;38.53;99797.72;92624;1219;81890;-57
2021/07/01 05:33:50;;;;;;;4.50;3.10;;;;;;;32.44;38.65;99797.78;92656;1219;66057;-64
2021/07/01 05:35:57;;;;;;;3.60;2.60;;;;;;;31.52;38.95;99807.69;92638;1219;68298;-65
2021/07/01 05:38:06;;;;;;;4.20;3.10;;;;;;;31.04;40.34;99810.98;92634;1219;86647;-58
2021/07/01 05:40:21;;;;;;;3.70;2.80;;;;;;;32.16;39.49;99807.21;92627;1219;75338;-59
2021/07/01 05:42:28;;;;;;;3.80;2.40;;;;;;;31.45;39.92;99807.41;92623;1220;81395;-64
2021/07/01 05:44:36;;;;;;;3.90;2.80;;;;;;;30.75;40.11;99808.20;92648;1219;67469;-64
2021/07/01 05:46:44;;;;;;;2.40;2.00;;;;;;;29.97;40.64;99807.69;92645;1221;68385;-65
2021/07/01 05:48:52;;;;;;;4.00;2.50;;;;;;;29.30;41.42;99804.66;92663;1219;87618;-65
2021/07/01 05:51:03;;;;;;;3.80;2.50;;;;;;;28.67;42.51;99810.77;92628;1225;74312;-66
2021/07/01 05:53:22;;;;;;;2.70;2.20;;;;;;;27.95;43.80;99810.23;92648;1219;81086;-60
2021/07/01 05:55:30;;;;;;;2.20;2.00;;;;;;;27.33;44.54;99810.09;92630;1219;67090;-56
2021/07/01 05:57:38;;;;;;;3.10;2.20;;;;;;;26.95;45.29;99814.31;92624;1218;67863;-63
2021/07/01 05:59:49;;;;;;;2.40;1.90;;;;;;;26.80;45.46;99822.98;92651;1218;86835;-65
2021/07/01 06:01:56;;;;;;;2.30;1.90;;;;;;;26.42;46.77;99825.14;92629;1219;75375;-64
2021/07/01 06:04:07;;;;;;;3.00;2.20;;;;;;;26.03;47.12;99814.50;92651;1220;79869;-65
2021/07/01 06:06:18;;;;;;;2.30;2.10;;;;;;;25.78;47.88;99809.42;92663;1219;67265;-66
2021/07/01 06:08:32;;;;;;;2.70;2.40;;;;;;;25.66;48.22;99806.30;92675;1219;68165;-65
2021/07/01 06:10:43;;;;;;;3.50;2.80;;;;;;;25.47;48.62;99803.58;92627;1219;87082;-64
2021/07/01 06:12:51;;;;;;;3.00;2.60;;;;;;;25.30;49.32;99808.79;92667;1219;74390;-57
2021/07/01 06:15:01;;;;;;;4.30;2.60;;;;;;;25.02;49.82;99812.56;92657;1219;80152;-57
2021/07/01 06:17:12;;;;;;;2.80;2.50;;;;;;;24.86;50.40;99809.16;92623;1219;66979;-57
2021/07/01 06:19:20;;;;;;;3.80;2.50;;;;;;;24.75;50.66;99820.64;92636;1219;68440;-65
2021/07/01 06:21:31;;;;;;;3.30;2.60;;;;;;;24.70;50.83;99813.23;92642;1219;87845;-65
2021/07/01 06:23:42;;;;;;;3.30;3.00;;;;;;;24.61;50.97;99820.55;92692;1224;74044;-58
2021/07/01 06:25:54;;;;;;;3.80;2.60;;;;;;;24.36;51.97;99823.61;92641;1219;80728;-58
2021/07/01 06:28:02;;;;;;;3.70;2.70;;;;;;;24.29;52.30;99821.19;92635;1219;67463;-65
2021/07/01 06:30:17;;;;;;;5.00;2.60;;;;;;;24.15;52.53;99820.23;92648;1219;68103;-64
2021/07/01 06:32:24;;;;;;;3.00;2.70;;;;;;;24.01;53.42;99820.07;92639;1219;86600;-63
2021/07/01 06:34:32;;;;;;;3.00;2.70;;;;;;;24.06;53.53;99824.73;92635;1219;75640;-58
2021/07/01 06:36:43;;;;;;;3.80;2.70;;;;;;;24.14;53.26;99826.89;92670;1209;80620;-57
2021/07/01 06:38:59;;;;;;;2.90;2.70;;;;;;;24.24;53.49;99825.94;92642;1219;66992;-59
2021/07/01 06:41:09;;;;;;;4.80;2.60;;;;;;;24.42;53.62;99825.20;92655;1219;68968;-57
2021/07/01 06:43:19;;;;;;;3.30;2.20;;;;;;;24.72;53.41;99826.76;92528;1219;87806;-56
2021/07/01 06:45:27;;;;;;;3.00;2.30;;;;;;;25.01;53.21;99831.08;92629;1219;74402;-57
2021/07/01 06:47:36;;;;;;;2.20;2.00;;;;;;;25.16;52.67;99827.28;92575;1219;81564;-55
2021/07/01 06:49:47;;;;;;;2.00;1.80;;;;;;;25.34;52.70;99831.14;92605;1219;66874;-58
2021/07/01 06:51:56;;;;;;;2.10;1.90;;;;;;;25.52;52.96;99844.98;92654;1219;68555;-58
2021/07/01 06:54:04;;;;;;;2.90;2.20;;;;;;;25.68;52.47;99846.38;92660;1219;86907;-69
2021/07/01 06:56:13;;;;;;;2.20;2.00;;;;;;;25.66;52.05;99853.33;92635;1219;75056;-68
2021/07/01 06:58:24;;;;;;;2.20;2.00;;;;;;;25.48;52.28;99843.13;92658;1218;82100;-66
2021/07/01 07:00:32;;;;;;;3.40;2.20;;;;;;;25.29;52.11;99845.05;92621;1219;67181;-65
2021/07/01 07:02:40;;;;;;;2.60;2.10;;;;;;;25.22;52.29;99837.13;92626;1219;70026;-69
2021/07/01 07:04:48;;;;;;;3.20;2.20;;;;;;;25.04;52.85;99838.78;92643;1219;86857;-69
2021/07/01 07:06:56;;;;;;;3.20;1.90;;;;;;;24.88;53.37;99842.88;92634;1220;73994;-67
2021/07/01 07:09:04;;;;;;;2.40;2.10;;;;;;;24.71;53.63;99850.80;92645;1218;82360;-68
2021/07/01 07:11:12;;;;;;;4.10;2.20;;;;;;;24.67;53.26;99844.20;92477;1219;66262;-70
2021/07/01 07:13:24;;;;;;;2.70;1.90;;;;;;;24.73;53.33;99834.73;92665;1219;68562;-69
2021/07/01 07:15:33;;;;;;;2.30;2.10;;;;;;;24.81;53.15;99842.40;92664;1219;87442;-68
2021/07/01 07:17:42;;;;;;;2.20;2.00;;;;;;;24.83;53.29;99839.36;92646;1219;74992;-67
2021/07/01 07:19:52;;;;;;;2.90;2.10;;;;;;;24.81;53.58;99827.75;92640;1219;82430;-66
2021/07/01 07:22:04;;;;;;;2.40;2.20;;;;;;;24.81;53.62;99834.11;92635;1219;66496;-61
2021/07/01 07:24:13;;;;;;;2.40;2.20;;;;;;;24.93;54.13;99834.52;92646;1219;68223;-61
2021/07/01 07:26:24;;;;;;;2.80;2.10;;;;;;;25.05;53.97;99826.58;92663;1209;86831;-61
2021/07/01 07:28:33;;;;;;;4.10;1.90;;;;;;;25.14;53.79;99822.03;92619;1219;74233;-66
2021/07/01 07:30:44;;;;;;;3.20;2.30;;;;;;;25.17;53.79;99826.14;92644;1219;81534;-68
2021/07/01 07:32:54;;;;;;;4.00;2.10;;;;;;;25.20;53.46;99828.31;92603;1219;67021;-66
2021/07/01 07:35:02;;;;;;;2.20;1.90;;;;;;;25.20;53.70;99837.44;92638;1220;67762;-69
2021/07/01 07:37:09;;;;;;;3.20;2.10;;;;;;;25.29;53.09;99837.58;92662;1209;85944;-69
2021/07/01 07:39:17;;;;;;;3.10;2.20;;;;;;;25.56;53.25;99839.67;92640;1219;76620;-59
2021/07/01 07:41:26;;;;;;;2.60;2.00;;;;;;;26.15;52.79;99831.45;92615;1219;80499;-58
2021/07/01 07:43:37;;;;;;;3.10;2.20;;;;;;;27.10;52.35;99830.63;92640;1219;67318;-63
2021/07/01 07:45:50;;;;;;;2.60;1.70;;;;;;;27.82;51.82;99830.58;92650;1220;68801;-64
2021/07/01 07:47:58;;;;;;;3.40;2.30;;;;;;;28.14;50.52;99835.03;92644;1219;86638;-60
2021/07/01 07:50:13;;;;;;;2.90;2.10;;;;;;;28.27;50.07;99834.11;92660;1220;75849;-60
2021/07/01 07:52:24;;;;;;;4.70;2.20;;;;;;;28.20;49.81;99840.14;92627;1220;81830;-60
2021/07/01 07:54:41;;;;;;;3.40;2.40;;;;;;;27.68;48.95;99846.48;92668;1225;66827;-59
2021/07/01 07:56:53;;;;;;;2.30;2.10;;;;;;;27.16;49.26;99845.20;92696;1218;69317;-61
2021/07/01 07:59:01;;;;;;;3.00;2.10;;;;;;;26.80;50.10;99842.39;92680;1219;86498;-60
2021/07/01 08:01:11;;;;;;;5.00;2.10;;;;;;;26.76;50.52;99833.00;92646;1218;74221;-60
2021/07/01 08:03:20;;;;;;;2.50;2.10;;;;;;;26.91;51.18;99836.31;92621;1219;82084;-67
2021/07/01 08:05:30;;;;;;;2.20;2.00;;;;;;;27.26;50.49;99833.86;92622;1220;66770;-69
2021/07/01 08:07:41;;;;;;;2.30;2.10;;;;;;;27.33;49.80;99835.06;92644;1219;68090;-60
2021/07/01 08:09:49;;;;;;;3.30;2.00;;;;;;;27.44;50.12;99838.47;92642;1219;86293;-61
2021/07/01 08:11:59;;;;;;;2.50;2.00;;;;;;;27.57;51.09;99831.21;92664;1218;76669;-61
2021/07/01 08:14:07;;;;;;;3.50;2.20;;;;;;;28.79;50.78;99819.28;92643;1219;81034;-60
2021/07/01 08:16:15;;;;;;;5.10;2.70;;;;;;;29.27;48.34;99829.53;92615;1219;67061;-59
2021/07/01 08:18:36;;;;;;;3.20;2.40;;;;;;;29.13;47.70;99829.66;92620;1219;68966;-61
2021/07/01 08:20:48;;;;;;;2.80;2.30;;;;;;;28.78;47.22;99828.78;92635;1219;86783;-60
2021/07/01 08:22:57;;;;;;;2.50;2.30;;;;;;;29.61;48.15;99819.20;92639;1221;73728;-60
2021/07/01 08:25:07;;;;;;;2.80;2.10;;;;;;;30.92;46.15;99825.70;92643;1222;81991;-60
2021/07/01 08:27:15;;;;;;;2.30;2.10;;;;;;;30.78;45.06;99819.52;92629;1219;65805;-59
2021/07/01 08:29:25;;;;;;;3.10;2.40;;;;;;;30.76;44.00;99821.02;92629;1224;70723;-70
2021/07/01 08:31:34;;;;;;;2.50;2.20;;;;;;;31.05;44.49;99822.97;92667;1209;86119;-68
2021/07/01 08:33:47;;;;;;;3.10;2.20;;;;;;;32.18;44.02;99821.65;92661;1219;75182;-61
2021/07/01 08:35:59;;;;;;;2.50;2.20;;;;;;;32.73;43.01;99826.73;92507;1219;80088;-62
2021/07/01 08:38:08;;;;;;;2.00;1.70;;;;;;;33.25;40.89;99831.23;92592;1219;66735;-69
2021/07/01 08:40:20;;;;;;;2.40;1.90;;;;;;;34.03;39.35;99836.33;92593;1213;67744;-69
2021/07/01 08:42:32;;;;;;;2.50;2.10;;;;;;;34.07;39.09;99826.05;92681;1218;86860;-61
2021/07/01 08:44:49;;;;;;;4.00;1.60;;;;;;;34.30;38.11;99829.88;92691;1209;73977;-63
2021/07/01 08:47:18;;;;;;;2.50;1.60;;;;;;;34.56;36.90;99826.50;92617;1219;81934;-62
2021/07/01 08:49:37;;;;;;;3.60;1.90;;;;;;;34.71;36.63;99822.09;92631;1214;65685;-63
2021/07/01 08:51:49;;;;;;;2.80;2.10;;;;;;;34.66;36.21;99819.58;92653;1219;69606;-66
2021/07/01 08:54:31;;;;;;;1.60;1.40;;;;;;;34.68;35.67;99818.03;92635;1218;86875;-70
2021/07/01 08:56:44;;;;;;;1.50;1.30;;;;;;;34.62;35.85;99819.48;92164;1221;74927;-68
2021/07/01 08:58:53;;;;;;;2.70;1.20;;;;;;;35.02;34.81;99822.05;92444;1219;81508;-66
2021/07/01 09:01:04;;;;;;;1.40;1.30;;;;;;;35.51;34.46;99817.55;92631;1219;67021;-68
2021/07/01 09:03:16;;;;;;;2.20;1.40;;;;;;;35.66;34.25;99812.22;92652;1225;69723;-71
2021/07/01 09:05:28;;;;;;;1.30;1.20;;;;;;;35.97;32.69;99814.86;92650;1219;85711;-61
2021/07/01 09:07:39;;;;;;;1.90;1.60;;;;;;;35.25;32.85;99808.13;92645;1219;75964;-69
2021/07/01 09:09:53;;;;;;;1.70;1.50;;;;;;;34.84;33.11;99813.20;92629;1219;80396;-71
2021/07/01 09:12:04;;;;;;;2.60;1.60;;;;;;;35.23;32.99;99816.11;92650;1219;65568;-70
2021/07/01 09:14:16;;;;;;;4.50;2.00;;;;;;;35.68;33.63;99816.31;92682;1219;69614;-63
2021/07/01 09:16:24;;;;;;;2.50;1.50;;;;;;;35.81;32.95;99819.77;92678;1214;85480;-66
2021/07/01 09:18:37;;;;;;;1.90;1.40;;;;;;;35.73;32.91;99818.82;92673;1219;75417;-68
2021/07/01 09:20:47;;;;;;;2.50;1.70;;;;;;;35.20;32.90;99811.23;92650;1219;81968;-65
2021/07/01 09:22:58;;;;;;;1.80;1.40;;;;;;;34.67;33.10;99807.15;92663;1218;67499;-65
2021/07/01 09:25:12;;;;;;;2.00;1.20;;;;;;;34.03;33.69;99807.47;92685;1219;67748;-63
2021/07/01 09:27:22;;;;;;;1.90;1.40;;;;;;;33.42;33.29;99806.91;92700;1218;86693;-66
2021/07/01 09:29:35;;;;;;;2.30;1.30;;;;;;;33.40;34.59;99812.06;92692;1209;73384;-64
2021/07/01 09:31:44;;;;;;;3.50;1.40;;;;;;;33.38;34.19;99808.78;92668;1219;81213;-65
2021/07/01 09:33:54;;;;;;;2.00;1.60;;;;;;;33.32;36.03;99816.62;92650;1219;65883;-68
2021/07/01 09:36:06;;;;;;;1.80;1.60;;;;;;;33.41;36.09;99810.88;92489;1219;69703;-68
2021/07/01 09:38:20;;;;;;;1.60;1.50;;;;;;;33.31;35.16;99808.59;92631;1219;86482;-67
2021/07/01 09:40:32;;;;;;;3.80;1.50;;;;;;;33.28;35.32;99809.29;92642;1219;75128;-68
2021/07/01 09:42:42;;;;;;;4.40;2.20;;;;;;;33.12;35.47;99807.25;92644;1219;80786;-62
2021/07/01 09:44:53;;;;;;;2.70;1.80;;;;;;;33.01;36.38;99800.47;92628;1218;66598;-62
2021/07/01 09:47:08;;;;;;;4.40;1.60;;;;;;;32.72;35.49;99789.53;92684;1219;69408;-61
2021/07/01 09:49:28;;;;;;;1.90;1.70;;;;;;;32.74;35.98;99797.59;92683;1214;87442;-65
2021/07/01 09:51:37;;;;;;;2.10;1.30;;;;;;;32.75;36.08;99796.41;92634;1219;74491;-69
2021/07/01 09:53:48;;;;;;;3.30;1.50;;;;;;;32.53;36.70;99798.53;92662;1218;79818;-59
2021/07/01 09:55:57;;;;;;;2.40;1.60;;;;;;;32.81;36.69;99801.43;92638;1220;66687;-67
2021/07/01 09:58:12;;;;;;;1.70;1.50;;;;;;;32.85;36.35;99801.55;92672;1221;69292;-60
2021/07/01 10:00:21;;;;;;;4.10;1.60;;;;;;;32.93;36.87;99798.63;92677;1224;86731;-61
2021/07/01 10:02:30;;;;;;;2.10;1.40;;;;;;;33.06;35.69;99799.44;92667;1219;75053;-68
2021/07/01 10:04:45;;;;;;;1.60;1.30;;;;;;;33.13;35.71;99800.45;92705;1219;81165;-70
2021/07/01 10:07:10;;;;;;;2.50;1.50;;;;;;;33.12;35.60;99800.83;92636;1219;68269;-68
2021/07/01 10:09:35;;;;;;;3.90;1.60;;;;;;;33.01;35.33;99794.88;92591;1219;69303;-59
2021/07/01 10:11:47;;;;;;;2.60;1.70;;;;;;;33.03;35.57;99798.13;92670;1219;86851;-67